sensor_id;sensor_type;location;lat;lon;timestamp;pressure;altitude;pressure_sealevel;temperature;humidity
69221;BME280;56331;51.992;20.910;2023-02-18T00:00:21;99130.14;;;20.91;35.19
69221;BME280;56331;51.992;20.910;2023-02-18T00:02:50;99143.19;;;20.91;35.12
69221;BME280;56331;51.992;20.910;2023-02-18T00:05:17;99141.80;;;20.91;35.04
69221;BME280;56331;51.992;20.910;2023-02-18T00:07:44;99153.67;;;20.91;34.97
69221;BME280;56331;51.992;20.910;2023-02-18T00:10:15;99160.59;;;20.91;34.92
69221;BME280;56331;51.992;20.910;2023-02-18T00:12:40;99164.50;;;20.90;34.83
69221;BME280;56331;51.992;20.910;2023-02-18T00:15:07;99173.40;;;20.90;34.84
69221;BME280;56331;51.992;20.910;2023-02-18T00:17:34;99182.50;;;20.90;34.80
69221;BME280;56331;51.992;20.910;2023-02-18T00:20:01;99176.76;;;20.89;34.67
69221;BME280;56331;51.992;20.910;2023-02-18T00:22:27;99171.80;;;20.89;34.67
69221;BME280;56331;51.992;20.910;2023-02-18T00:24:54;99189.42;;;20.90;34.54
69221;BME280;56331;51.992;20.910;2023-02-18T00:27:20;99175.96;;;20.89;34.58
69221;BME280;56331;51.992;20.910;2023-02-18T00:29:46;99176.76;;;20.89;34.48
69221;BME280;56331;51.992;20.910;2023-02-18T00:32:13;99182.30;;;20.89;34.39
69221;BME280;56331;51.992;20.910;2023-02-18T00:34:43;99180.11;;;20.89;34.35
69221;BME280;56331;51.992;20.910;2023-02-18T00:37:10;99187.03;;;20.89;34.39
69221;BME280;56331;51.992;20.910;2023-02-18T00:39:36;99186.80;;;20.88;34.40
69221;BME280;56331;51.992;20.910;2023-02-18T00:42:04;99182.30;;;20.89;34.26
69221;BME280;56331;51.992;20.910;2023-02-18T00:44:30;99178.73;;;20.89;34.27
69221;BME280;56331;51.992;20.910;2023-02-18T00:46:57;99185.65;;;20.89;34.18
69221;BME280;56331;51.992;20.910;2023-02-18T00:49:24;99166.27;;;20.89;34.18
69221;BME280;56331;51.992;20.910;2023-02-18T00:51:50;99168.45;;;20.89;34.12
69221;BME280;56331;51.992;20.910;2023-02-18T00:54:16;99178.14;;;20.89;34.06
69221;BME280;56331;51.992;20.910;2023-02-18T00:56:46;99168.80;;;20.88;34.11
69221;BME280;56331;51.992;20.910;2023-02-18T00:59:12;99200.08;;;20.88;34.04
69221;BME280;56331;51.992;20.910;2023-02-18T01:01:39;99183.67;;;20.89;34.00
69221;BME280;56331;51.992;20.910;2023-02-18T01:04:06;99194.75;;;20.89;34.00
69221;BME280;56331;51.992;20.910;2023-02-18T01:06:32;99190.59;;;20.89;33.98
69221;BME280;56331;51.992;20.910;2023-02-18T01:08:59;99194.75;;;20.89;33.93
69221;BME280;56331;51.992;20.910;2023-02-18T01:11:25;99196.13;;;20.89;33.91
69221;BME280;56331;51.992;20.910;2023-02-18T01:13:52;99193.16;;;20.88;33.84
69221;BME280;56331;51.992;20.910;2023-02-18T01:16:18;99191.19;;;20.89;33.87
69221;BME280;56331;51.992;20.910;2023-02-18T01:18:45;99186.23;;;20.88;33.86
69221;BME280;56331;51.992;20.910;2023-02-18T01:21:11;99180.70;;;20.88;33.83
69221;BME280;56331;51.992;20.910;2023-02-18T01:23:40;99184.85;;;20.88;33.77
69221;BME280;56331;51.992;20.910;2023-02-18T01:26:07;99202.84;;;20.88;33.72
69221;BME280;56331;51.992;20.910;2023-02-18T01:28:34;99196.72;;;20.89;33.71
69221;BME280;56331;51.992;20.910;2023-02-18T01:31:07;99201.46;;;20.88;33.74
69221;BME280;56331;51.992;20.910;2023-02-18T01:33:36;99191.98;;;20.89;33.66
69221;BME280;56331;51.992;20.910;2023-02-18T01:36:04;99197.52;;;20.89;33.79
69221;BME280;56331;51.992;20.910;2023-02-18T01:38:31;99180.32;;;20.90;33.64
69221;BME280;56331;51.992;20.910;2023-02-18T01:41:03;99180.32;;;20.90;33.54
69221;BME280;56331;51.992;20.910;2023-02-18T01:43:30;99182.88;;;20.89;33.52
69221;BME280;56331;51.992;20.910;2023-02-18T01:48:47;99183.09;;;20.90;33.54
69221;BME280;56331;51.992;20.910;2023-02-18T01:51:18;99186.23;;;20.88;33.57
69221;BME280;56331;51.992;20.910;2023-02-18T01:53:56;99175.16;;;20.88;33.46
69221;BME280;56331;51.992;20.910;2023-02-18T01:56:27;99168.00;;;20.87;33.40
69221;BME280;56331;51.992;20.910;2023-02-18T01:58:54;99173.78;;;20.88;33.38
69221;BME280;56331;51.992;20.910;2023-02-18T02:01:22;99180.46;;;20.87;33.40
69221;BME280;56331;51.992;20.910;2023-02-18T02:03:49;99192.13;;;20.87;33.38
69221;BME280;56331;51.992;20.910;2023-02-18T02:06:18;99180.70;;;20.88;33.40
69221;BME280;56331;51.992;20.910;2023-02-18T02:08:46;99186.80;;;20.88;33.39
69221;BME280;56331;51.992;20.910;2023-02-18T02:16:54;99193.95;;;20.89;33.46
69221;BME280;56331;51.992;20.910;2023-02-18T02:25:45;99190.39;;;20.88;33.38
69221;BME280;56331;51.992;20.910;2023-02-18T02:36:57;99187.03;;;20.89;33.45
69221;BME280;56331;51.992;20.910;2023-02-18T02:39:41;99197.31;;;20.88;33.47
69221;BME280;56331;51.992;20.910;2023-02-18T02:42:27;99208.38;;;20.88;33.42
69221;BME280;56331;51.992;20.910;2023-02-18T02:45:06;99212.88;;;20.87;33.34
69221;BME280;56331;51.992;20.910;2023-02-18T02:53:13;99210.91;;;20.87;33.25
69221;BME280;56331;51.992;20.910;2023-02-18T02:55:40;99222.78;;;20.88;33.38
69221;BME280;56331;51.992;20.910;2023-02-18T02:58:10;99228.31;;;20.88;33.29
69221;BME280;56331;51.992;20.910;2023-02-18T03:09:03;99224.99;;;20.88;32.75
69221;BME280;56331;51.992;20.910;2023-02-18T03:12:00;99235.48;;;20.89;32.57
69221;BME280;56331;51.992;20.910;2023-02-18T03:14:41;99243.78;;;20.89;32.41
69221;BME280;56331;51.992;20.910;2023-02-18T03:19:50;99246.17;;;20.90;32.17
69221;BME280;56331;51.992;20.910;2023-02-18T03:22:30;99236.72;;;20.91;32.05
69221;BME280;56331;51.992;20.910;2023-02-18T03:24:57;99252.75;;;20.92;31.93
69221;BME280;56331;51.992;20.910;2023-02-18T03:27:33;99242.26;;;20.91;31.83
69221;BME280;56331;51.992;20.910;2023-02-18T03:30:15;99236.72;;;20.91;31.77
69221;BME280;56331;51.992;20.910;2023-02-18T03:32:44;99246.03;;;20.93;31.67
69221;BME280;56331;51.992;20.910;2023-02-18T03:35:15;99246.63;;;20.92;31.58
69221;BME280;56331;51.992;20.910;2023-02-18T03:37:48;99246.41;;;20.91;31.50
69221;BME280;56331;51.992;20.910;2023-02-18T03:40:16;99246.63;;;20.92;31.45
69221;BME280;56331;51.992;20.910;2023-02-18T03:42:43;99248.59;;;20.92;31.39
69221;BME280;56331;51.992;20.910;2023-02-18T03:45:12;99250.19;;;20.93;31.31
69221;BME280;56331;51.992;20.910;2023-02-18T03:47:38;99239.11;;;20.93;31.26
69221;BME280;56331;51.992;20.910;2023-02-18T03:50:06;99241.46;;;20.91;31.18
69221;BME280;56331;51.992;20.910;2023-02-18T03:52:32;99250.19;;;20.93;31.16
69221;BME280;56331;51.992;20.910;2023-02-18T03:55:05;99253.54;;;20.92;31.09
69221;BME280;56331;51.992;20.910;2023-02-18T03:57:31;99241.88;;;20.93;31.00
69221;BME280;56331;51.992;20.910;2023-02-18T03:59:58;99245.23;;;20.92;30.99
69221;BME280;56331;51.992;20.910;2023-02-18T04:02:24;99247.80;;;20.91;30.97
69221;BME280;56331;51.992;20.910;2023-02-18T04:04:51;99251.95;;;20.91;31.07
69221;BME280;56331;51.992;20.910;2023-02-18T04:07:17;99260.25;;;20.91;31.32
69221;BME280;56331;51.992;20.910;2023-02-18T04:09:44;99257.83;;;20.90;31.45
69221;BME280;56331;51.992;20.910;2023-02-18T04:12:10;99255.06;;;20.90;31.51
69221;BME280;56331;51.992;20.910;2023-02-18T04:14:37;99263.37;;;20.90;31.54
69221;BME280;56331;51.992;20.910;2023-02-18T04:17:07;99279.77;;;20.89;31.62
69221;BME280;56331;51.992;20.910;2023-02-18T04:19:35;99260.16;;;20.88;31.60
69221;BME280;56331;51.992;20.910;2023-02-18T04:22:10;99251.84;;;20.88;31.65
69221;BME280;56331;51.992;20.910;2023-02-18T04:24:36;99271.81;;;20.87;31.66
69221;BME280;56331;51.992;20.910;2023-02-18T04:27:05;99262.13;;;20.87;31.71
69221;BME280;56331;51.992;20.910;2023-02-18T04:29:31;99281.73;;;20.88;31.75
69221;BME280;56331;51.992;20.910;2023-02-18T04:31:58;99269.84;;;20.88;31.78
69221;BME280;56331;51.992;20.910;2023-02-18T04:34:24;99269.05;;;20.87;31.79
69221;BME280;56331;51.992;20.910;2023-02-18T04:36:51;99275.96;;;20.87;31.74
69221;BME280;56331;51.992;20.910;2023-02-18T04:39:17;99267.45;;;20.86;31.73
69221;BME280;56331;51.992;20.910;2023-02-18T04:41:44;99268.25;;;20.87;31.75
69221;BME280;56331;51.992;20.910;2023-02-18T04:44:10;99263.51;;;20.87;31.73
69221;BME280;56331;51.992;20.910;2023-02-18T04:46:37;99275.17;;;20.87;31.84
69221;BME280;56331;51.992;20.910;2023-02-18T04:49:04;99284.06;;;20.86;31.69
69221;BME280;56331;51.992;20.910;2023-02-18T04:51:34;99276.10;;;20.85;31.65
69221;BME280;56331;51.992;20.910;2023-02-18T04:54:03;99279.32;;;20.87;31.60
69221;BME280;56331;51.992;20.910;2023-02-18T04:56:29;99291.33;;;20.85;31.60
69221;BME280;56331;51.992;20.910;2023-02-18T04:58:55;99276.10;;;20.85;31.56
69221;BME280;56331;51.992;20.910;2023-02-18T05:01:22;99267.00;;;20.84;31.59
69221;BME280;56331;51.992;20.910;2023-02-18T05:03:49;99262.84;;;20.84;31.59
69221;BME280;56331;51.992;20.910;2023-02-18T05:06:18;99271.95;;;20.85;31.61
69221;BME280;56331;51.992;20.910;2023-02-18T05:08:44;99261.25;;;20.83;31.50
69221;BME280;56331;51.992;20.910;2023-02-18T05:11:11;99260.67;;;20.84;31.52
69221;BME280;56331;51.992;20.910;2023-02-18T05:13:37;99270.36;;;20.84;31.49
69221;BME280;56331;51.992;20.910;2023-02-18T05:16:04;99255.72;;;20.83;31.53
69221;BME280;56331;51.992;20.910;2023-02-18T05:18:32;99281.43;;;20.84;31.46
69221;BME280;56331;51.992;20.910;2023-02-18T05:20:58;99259.05;;;20.83;31.48
69221;BME280;56331;51.992;20.910;2023-02-18T05:23:25;99280.63;;;20.83;31.49
69221;BME280;56331;51.992;20.910;2023-02-18T05:25:53;99270.36;;;20.84;31.47
69221;BME280;56331;51.992;20.910;2023-02-18T05:28:20;99283.41;;;20.83;31.43
69221;BME280;56331;51.992;20.910;2023-02-18T05:30:46;99284.20;;;20.84;31.40
69221;BME280;56331;51.992;20.910;2023-02-18T05:33:12;99281.78;;;20.82;31.41
69221;BME280;56331;51.992;20.910;2023-02-18T05:35:39;99286.17;;;20.83;31.40
69221;BME280;56331;51.992;20.910;2023-02-18T05:38:07;99297.24;;;20.83;31.41
69221;BME280;56331;51.992;20.910;2023-02-18T05:40:35;99302.78;;;20.83;31.41
69221;BME280;56331;51.992;20.910;2023-02-18T05:43:01;99300.80;;;20.84;31.40
69221;BME280;56331;51.992;20.910;2023-02-18T05:45:28;99303.92;;;20.82;31.39
69221;BME280;56331;51.992;20.910;2023-02-18T05:47:54;99295.86;;;20.83;31.35
69221;BME280;56331;51.992;20.910;2023-02-18T05:50:21;99308.87;;;20.83;31.42
69221;BME280;56331;51.992;20.910;2023-02-18T05:52:48;99313.84;;;20.83;31.42
69221;BME280;56331;51.992;20.910;2023-02-18T05:55:14;99289.49;;;20.83;31.41
69221;BME280;56331;51.992;20.910;2023-02-18T05:57:40;99325.72;;;20.84;31.40
69221;BME280;56331;51.992;20.910;2023-02-18T06:00:07;99304.72;;;20.83;31.44
69221;BME280;56331;51.992;20.910;2023-02-18T06:02:35;99313.84;;;20.83;31.47
69221;BME280;56331;51.992;20.910;2023-02-18T06:05:03;99305.55;;;20.83;31.40
69221;BME280;56331;51.992;20.910;2023-02-18T06:07:30;99314.99;;;20.82;31.26
69221;BME280;56331;51.992;20.910;2023-02-18T06:09:56;99316.62;;;20.83;31.19
69221;BME280;56331;51.992;20.910;2023-02-18T06:12:23;99319.59;;;20.84;31.14
69221;BME280;56331;51.992;20.910;2023-02-18T06:14:52;99321.56;;;20.84;31.08
69221;BME280;56331;51.992;20.910;2023-02-18T06:17:18;99322.95;;;20.84;31.03
69221;BME280;56331;51.992;20.910;2023-02-18T06:19:49;99334.82;;;20.84;30.97
69221;BME280;56331;51.992;20.910;2023-02-18T06:22:16;99352.81;;;20.84;30.93
69221;BME280;56331;51.992;20.910;2023-02-18T06:24:42;99354.41;;;20.85;30.85
69221;BME280;56331;51.992;20.910;2023-02-18T06:27:09;99339.18;;;20.85;30.78
69221;BME280;56331;51.992;20.910;2023-02-18T06:29:35;99361.57;;;20.86;30.75
69221;BME280;56331;51.992;20.910;2023-02-18T06:32:02;99368.48;;;20.86;30.68
69221;BME280;56331;51.992;20.910;2023-02-18T06:34:32;99381.16;;;20.87;30.67
69221;BME280;56331;51.992;20.910;2023-02-18T06:36:56;99375.86;;;20.88;30.61
69221;BME280;56331;51.992;20.910;2023-02-18T06:39:22;99379.19;;;20.88;30.55
69221;BME280;56331;51.992;20.910;2023-02-18T06:41:49;99388.31;;;20.88;30.54
69221;BME280;56331;51.992;20.910;2023-02-18T06:44:15;99386.11;;;20.88;30.47
69221;BME280;56331;51.992;20.910;2023-02-18T06:46:43;99385.89;;;20.87;30.43
69221;BME280;56331;51.992;20.910;2023-02-18T06:49:10;99382.55;;;20.87;30.39
69221;BME280;56331;51.992;20.910;2023-02-18T06:51:36;99396.38;;;20.87;30.36
69221;BME280;56331;51.992;20.910;2023-02-18T06:54:03;99369.50;;;20.88;30.32
69221;BME280;56331;51.992;20.910;2023-02-18T06:56:30;99395.80;;;20.88;30.33
69221;BME280;56331;51.992;20.910;2023-02-18T06:58:57;99399.73;;;20.87;30.25
69221;BME280;56331;51.992;20.910;2023-02-18T07:01:23;99393.61;;;20.87;30.27
69221;BME280;56331;51.992;20.910;2023-02-18T07:03:50;99399.16;;;20.87;30.20
69221;BME280;56331;51.992;20.910;2023-02-18T07:06:16;99411.85;;;20.88;30.17
69221;BME280;56331;51.992;20.910;2023-02-18T07:08:43;99416.56;;;20.88;30.18
69221;BME280;56331;51.992;20.910;2023-02-18T07:11:09;99415.41;;;20.89;30.14
69221;BME280;56331;51.992;20.910;2023-02-18T07:13:35;99403.75;;;20.89;30.12
69221;BME280;56331;51.992;20.910;2023-02-18T07:16:02;99411.85;;;20.88;30.07
69221;BME280;56331;51.992;20.910;2023-02-18T07:18:28;99412.65;;;20.89;30.07
69221;BME280;56331;51.992;20.910;2023-02-18T07:20:57;99416.80;;;20.89;30.07
69221;BME280;56331;51.992;20.910;2023-02-18T07:23:23;99418.98;;;20.89;30.01
69221;BME280;56331;51.992;20.910;2023-02-18T07:25:49;99426.48;;;20.89;30.02
69221;BME280;56331;51.992;20.910;2023-02-18T07:28:16;99436.77;;;20.88;29.99
69221;BME280;56331;51.992;20.910;2023-02-18T07:30:42;99418.77;;;20.88;29.99
69221;BME280;56331;51.992;20.910;2023-02-18T07:33:09;99409.08;;;20.88;29.93
69221;BME280;56331;51.992;20.910;2023-02-18T07:35:35;99442.06;;;20.87;29.95
69221;BME280;56331;51.992;20.910;2023-02-18T07:38:02;99427.08;;;20.88;29.95
69221;BME280;56331;51.992;20.910;2023-02-18T07:40:28;99429.84;;;20.88;29.89
69221;BME280;56331;51.992;20.910;2023-02-18T07:42:55;99428.46;;;20.88;29.89
69221;BME280;56331;51.992;20.910;2023-02-18T07:45:21;99424.52;;;20.89;29.86
69221;BME280;56331;51.992;20.910;2023-02-18T07:47:48;99414.62;;;20.88;29.82
69221;BME280;56331;51.992;20.910;2023-02-18T07:50:14;99416.80;;;20.89;29.85
69221;BME280;56331;51.992;20.910;2023-02-18T07:52:41;99416.00;;;20.88;29.82
69221;BME280;56331;51.992;20.910;2023-02-18T07:55:07;99410.67;;;20.89;29.81
69221;BME280;56331;51.992;20.910;2023-02-18T07:57:34;99420.95;;;20.89;29.75
69221;BME280;56331;51.992;20.910;2023-02-18T08:00:03;99414.03;;;20.89;29.78
69221;BME280;56331;51.992;20.910;2023-02-18T08:02:30;99437.77;;;20.90;29.77
69221;BME280;56331;51.992;20.910;2023-02-18T08:04:56;99409.08;;;20.88;29.88
69221;BME280;56331;51.992;20.910;2023-02-18T08:07:23;99424.06;;;20.87;30.05
69221;BME280;56331;51.992;20.910;2023-02-18T08:09:49;99425.69;;;20.88;30.09
69221;BME280;56331;51.992;20.910;2023-02-18T08:12:15;99420.50;;;20.87;30.13
69221;BME280;56331;51.992;20.910;2023-02-18T08:14:42;99399.73;;;20.87;30.19
69221;BME280;56331;51.992;20.910;2023-02-18T08:17:08;99401.13;;;20.87;30.27
69221;BME280;56331;51.992;20.910;2023-02-18T08:19:35;99425.23;;;20.86;30.33
69221;BME280;56331;51.992;20.910;2023-02-18T08:22:02;99408.97;;;20.85;30.41
69221;BME280;56331;51.992;20.910;2023-02-18T08:26:55;99413.92;;;20.85;30.39
69221;BME280;56331;51.992;20.910;2023-02-18T08:29:22;99415.30;;;20.85;30.46
69221;BME280;56331;51.992;20.910;2023-02-18T08:31:51;99415.30;;;20.85;30.52
69221;BME280;56331;51.992;20.910;2023-02-18T08:34:19;99412.78;;;20.86;30.50
69221;BME280;56331;51.992;20.910;2023-02-18T08:36:46;99411.74;;;20.85;30.52
69221;BME280;56331;51.992;20.910;2023-02-18T08:39:12;99411.53;;;20.84;30.57
69221;BME280;56331;51.992;20.910;2023-02-18T08:41:38;99428.34;;;20.85;30.55
69221;BME280;56331;51.992;20.910;2023-02-18T08:44:05;99421.43;;;20.85;30.60
69221;BME280;56331;51.992;20.910;2023-02-18T08:46:32;99415.09;;;20.84;30.57
69221;BME280;56331;51.992;20.910;2023-02-18T08:48:58;99426.75;;;20.84;30.63
69221;BME280;56331;51.992;20.910;2023-02-18T08:51:24;99427.55;;;20.84;30.63
69221;BME280;56331;51.992;20.910;2023-02-18T08:53:54;99434.26;;;20.83;30.67
69221;BME280;56331;51.992;20.910;2023-02-18T08:56:20;99410.73;;;20.83;30.70
69221;BME280;56331;51.992;20.910;2023-02-18T08:58:48;99431.91;;;20.85;30.76
69221;BME280;56331;51.992;20.910;2023-02-18T09:01:14;99430.91;;;20.84;30.74
69221;BME280;56331;51.992;20.910;2023-02-18T09:03:41;99435.86;;;20.84;30.77
69221;BME280;56331;51.992;20.910;2023-02-18T09:06:07;99436.66;;;20.85;30.76
69221;BME280;56331;51.992;20.910;2023-02-18T09:08:34;99449.91;;;20.85;30.72
69221;BME280;56331;51.992;20.910;2023-02-18T09:11:02;99444.95;;;20.85;30.78
69221;BME280;56331;51.992;20.910;2023-02-18T09:13:30;99442.78;;;20.84;30.79
69221;BME280;56331;51.992;20.910;2023-02-18T09:16:02;99448.53;;;20.85;30.81
69221;BME280;56331;51.992;20.910;2023-02-18T09:18:30;99456.62;;;20.84;30.83
69221;BME280;56331;51.992;20.910;2023-02-18T09:20:58;99453.64;;;20.83;30.81
69221;BME280;56331;51.992;20.910;2023-02-18T09:23:29;99458.59;;;20.84;30.82
69221;BME280;56331;51.992;20.910;2023-02-18T09:25:56;99441.39;;;20.84;30.80
69221;BME280;56331;51.992;20.910;2023-02-18T09:28:23;99443.36;;;20.84;30.77
69221;BME280;56331;51.992;20.910;2023-02-18T09:30:49;99465.51;;;20.84;30.84
69221;BME280;56331;51.992;20.910;2023-02-18T09:33:16;99452.47;;;20.84;30.80
69221;BME280;56331;51.992;20.910;2023-02-18T09:35:44;99446.34;;;20.85;30.65
69221;BME280;56331;51.992;20.910;2023-02-18T09:38:13;99454.06;;;20.85;30.35
69221;BME280;56331;51.992;20.910;2023-02-18T09:40:46;99452.92;;;20.86;30.21
69221;BME280;56331;51.992;20.910;2023-02-18T09:43:34;99454.52;;;20.87;30.03
69221;BME280;56331;51.992;20.910;2023-02-18T09:46:16;99459.47;;;20.88;29.92
69221;BME280;56331;51.992;20.910;2023-02-18T09:48:34;99463.62;;;20.88;29.83
69221;BME280;56331;51.992;20.910;2023-02-18T09:51:01;99464.20;;;20.87;29.66
69221;BME280;56331;51.992;20.910;2023-02-18T09:53:28;99460.30;;;20.88;29.60
69221;BME280;56331;51.992;20.910;2023-02-18T09:55:55;99461.09;;;20.89;29.53
69221;BME280;56331;51.992;20.910;2023-02-18T09:58:28;99479.89;;;20.89;29.44
69221;BME280;56331;51.992;20.910;2023-02-18T10:01:04;99477.12;;;20.89;29.33
69221;BME280;56331;51.992;20.910;2023-02-18T10:03:31;99487.98;;;20.88;29.25
69221;BME280;56331;51.992;20.910;2023-02-18T10:06:15;99483.83;;;20.88;29.19
69221;BME280;56331;51.992;20.910;2023-02-18T10:08:45;99478.29;;;20.88;29.15
69221;BME280;56331;51.992;20.910;2023-02-18T10:11:20;99467.22;;;20.88;29.01
69221;BME280;56331;51.992;20.910;2023-02-18T10:13:49;99461.68;;;20.88;28.94
69221;BME280;56331;51.992;20.910;2023-02-18T10:16:18;99465.83;;;20.88;28.85
69221;BME280;56331;51.992;20.910;2023-02-18T10:18:47;99483.24;;;20.89;28.83
69221;BME280;56331;51.992;20.910;2023-02-18T10:21:15;99487.39;;;20.89;28.71
69221;BME280;56331;51.992;20.910;2023-02-18T10:26:22;99468.60;;;20.88;28.67
69221;BME280;56331;51.992;20.910;2023-02-18T10:28:50;99472.75;;;20.88;28.66
69221;BME280;56331;51.992;20.910;2023-02-18T10:31:21;99469.74;;;20.87;28.62
69221;BME280;56331;51.992;20.910;2023-02-18T10:33:59;99463.62;;;20.88;28.62
69221;BME280;56331;51.992;20.910;2023-02-18T10:36:31;99478.29;;;20.88;28.86
69221;BME280;56331;51.992;20.910;2023-02-18T10:47:31;99480.95;;;20.85;29.12
69221;BME280;56331;51.992;20.910;2023-02-18T10:49:59;99474.61;;;20.84;29.20
69221;BME280;56331;51.992;20.910;2023-02-18T10:52:32;99452.47;;;20.84;29.24
69221;BME280;56331;51.992;20.910;2023-02-18T10:57:31;99452.25;;;20.83;29.36
69221;BME280;56331;51.992;20.910;2023-02-18T11:00:14;99451.67;;;20.84;29.40
69221;BME280;56331;51.992;20.910;2023-02-18T11:02:38;99477.17;;;20.83;29.42
69221;BME280;56331;51.992;20.910;2023-02-18T11:05:17;99449.48;;;20.83;29.46
69221;BME280;56331;51.992;20.910;2023-02-18T11:07:46;99450.87;;;20.83;29.48
69221;BME280;56331;51.992;20.910;2023-02-18T11:10:17;99446.47;;;20.82;29.51
69221;BME280;56331;51.992;20.910;2023-02-18T11:12:55;99453.64;;;20.83;29.49
69221;BME280;56331;51.992;20.910;2023-02-18T11:15:24;99447.27;;;20.83;29.54
69221;BME280;56331;51.992;20.910;2023-02-18T11:18:18;99447.52;;;20.84;29.58
69221;BME280;56331;51.992;20.910;2023-02-18T11:20:35;99445.33;;;20.83;29.62
69221;BME280;56331;51.992;20.910;2023-02-18T11:26:05;99432.29;;;20.84;29.64
69221;BME280;56331;51.992;20.910;2023-02-18T11:28:45;99424.57;;;20.83;29.66
69221;BME280;56331;51.992;20.910;2023-02-18T11:31:10;99406.58;;;20.83;29.69
69221;BME280;56331;51.992;20.910;2023-02-18T11:33:40;99424.33;;;20.82;29.73
69221;BME280;56331;51.992;20.910;2023-02-18T11:36:30;99421.80;;;20.83;29.73
69221;BME280;56331;51.992;20.910;2023-02-18T11:39:05;99409.91;;;20.83;29.75
69221;BME280;56331;51.992;20.910;2023-02-18T11:44:06;99420.97;;;20.83;29.82
69221;BME280;56331;51.992;20.910;2023-02-18T11:46:34;99406.58;;;20.83;29.82
69221;BME280;56331;51.992;20.910;2023-02-18T11:49:21;99416.02;;;20.82;29.78
69221;BME280;56331;51.992;20.910;2023-02-18T11:51:48;99425.12;;;20.83;29.81
69221;BME280;56331;51.992;20.910;2023-02-18T11:54:27;99412.67;;;20.83;29.88
69221;BME280;56331;51.992;20.910;2023-02-18T11:57:08;99410.48;;;20.82;29.87
69221;BME280;56331;51.992;20.910;2023-02-18T11:59:38;99407.13;;;20.83;29.86
69221;BME280;56331;51.992;20.910;2023-02-18T12:04:50;99405.75;;;20.83;29.86
69221;BME280;56331;51.992;20.910;2023-02-18T12:07:42;99391.36;;;20.83;29.82
69221;BME280;56331;51.992;20.910;2023-02-18T12:10:35;99392.36;;;20.85;29.79
69221;BME280;56331;51.992;20.910;2023-02-18T12:15:27;99387.28;;;20.87;29.66
69221;BME280;56331;51.992;20.910;2023-02-18T12:20:57;99383.13;;;20.87;29.52
69221;BME280;56331;51.992;20.910;2023-02-18T12:24:28;99382.33;;;20.86;29.52
69221;BME280;56331;51.992;20.910;2023-02-18T12:34:31;99377.59;;;20.87;29.29
69221;BME280;56331;51.992;20.910;2023-02-18T12:39:52;99374.83;;;20.87;29.27
69221;BME280;56331;51.992;20.910;2023-02-18T12:45:08;99363.16;;;20.87;29.17
69221;BME280;56331;51.992;20.910;2023-02-18T12:50:43;99369.73;;;20.89;29.15
69221;BME280;56331;51.992;20.910;2023-02-18T12:56:18;99357.05;;;20.88;29.33
69221;BME280;56331;51.992;20.910;2023-02-18T13:01:42;99363.96;;;20.88;28.99
69221;BME280;56331;51.992;20.910;2023-02-18T13:10:18;99364.09;;;20.85;29.22
69221;BME280;56331;51.992;20.910;2023-02-18T13:15:18;99349.00;;;20.83;29.24
69221;BME280;56331;51.992;20.910;2023-02-18T13:17:47;99352.36;;;20.82;29.29
69221;BME280;56331;51.992;20.910;2023-02-18T13:20:24;99342.67;;;20.82;29.35
69221;BME280;56331;51.992;20.910;2023-02-18T13:22:51;99345.23;;;20.81;29.36
69221;BME280;56331;51.992;20.910;2023-02-18T13:25:18;99341.66;;;20.81;29.39
69221;BME280;56331;51.992;20.910;2023-02-18T13:33:21;99330.59;;;20.81;29.50
69221;BME280;56331;51.992;20.910;2023-02-18T13:36:15;99342.46;;;20.81;29.55
69221;BME280;56331;51.992;20.910;2023-02-18T13:41:27;99350.77;;;20.81;29.61
69221;BME280;56331;51.992;20.910;2023-02-18T13:43:58;99353.87;;;20.80;29.61
69221;BME280;56331;51.992;20.910;2023-02-18T13:46:23;99358.03;;;20.80;29.58
69221;BME280;56331;51.992;20.910;2023-02-18T13:51:43;99354.67;;;20.80;29.69
69221;BME280;56331;51.992;20.910;2023-02-18T13:56:59;99351.70;;;20.79;29.72
69221;BME280;56331;51.992;20.910;2023-02-18T13:59:34;99350.10;;;20.78;29.75
69221;BME280;56331;51.992;20.910;2023-02-18T14:05:14;99345.36;;;20.79;29.79
69221;BME280;56331;51.992;20.910;2023-02-18T14:07:50;99336.82;;;20.78;29.75
69221;BME280;56331;51.992;20.910;2023-02-18T14:25:52;99300.84;;;20.78;29.89
69221;BME280;56331;51.992;20.910;2023-02-18T14:31:16;99290.35;;;20.77;29.99
69221;BME280;56331;51.992;20.910;2023-02-18T14:33:34;99293.13;;;20.77;29.92
69221;BME280;56331;51.992;20.910;2023-02-18T14:36:34;99290.00;;;20.79;29.85
69221;BME280;56331;51.992;20.910;2023-02-18T14:47:13;99274.20;;;20.79;29.68
69221;BME280;56331;51.992;20.910;2023-02-18T14:49:51;99292.39;;;20.80;29.62
69221;BME280;56331;51.992;20.910;2023-02-18T14:52:21;99296.55;;;20.80;29.52
69221;BME280;56331;51.992;20.910;2023-02-18T14:54:44;99278.56;;;20.80;29.49
69221;BME280;56331;51.992;20.910;2023-02-18T14:57:16;99286.30;;;20.81;29.45
69221;BME280;56331;51.992;20.910;2023-02-18T14:59:45;99269.70;;;20.81;29.41
69221;BME280;56331;51.992;20.910;2023-02-18T15:02:21;99269.11;;;20.81;29.37
69221;BME280;56331;51.992;20.910;2023-02-18T15:04:50;99280.98;;;20.82;29.35
69221;BME280;56331;51.992;20.910;2023-02-18T15:07:20;99273.85;;;20.81;29.28
69221;BME280;56331;51.992;20.910;2023-02-18T15:09:53;99269.11;;;20.81;29.24
69221;BME280;56331;51.992;20.910;2023-02-18T15:12:23;99272.67;;;20.82;29.18
69221;BME280;56331;51.992;20.910;2023-02-18T15:14:51;99260.43;;;20.83;29.12
69221;BME280;56331;51.992;20.910;2023-02-18T15:17:21;99272.67;;;20.82;29.05
69221;BME280;56331;51.992;20.910;2023-02-18T15:19:53;99265.75;;;20.82;29.04
69221;BME280;56331;51.992;20.910;2023-02-18T15:22:22;99272.47;;;20.81;28.97
69221;BME280;56331;51.992;20.910;2023-02-18T15:24:54;99265.75;;;20.82;29.01